sensor_id;sensor_type;location;lat;lon;timestamp;temperature;humidity
1329;DHT22;658;48.820;9.354;2023-05-10T00:02:05;24.00;54.40
1329;DHT22;658;48.820;9.354;2023-05-10T00:06:06;24.00;54.50
1329;DHT22;658;48.820;9.354;2023-05-10T00:10:07;24.00;54.50
1329;DHT22;658;48.820;9.354;2023-05-10T00:14:07;24.00;54.50
1329;DHT22;658;48.820;9.354;2023-05-10T00:18:10;24.00;54.50
1329;DHT22;658;48.820;9.354;2023-05-10T00:22:11;24.00;54.50
1329;DHT22;658;48.820;9.354;2023-05-10T00:26:12;23.90;54.30
1329;DHT22;658;48.820;9.354;2023-05-10T00:30:12;23.90;54.40
1329;DHT22;658;48.820;9.354;2023-05-10T00:34:15;23.90;54.30
1329;DHT22;658;48.820;9.354;2023-05-10T00:38:16;23.90;54.20
1329;DHT22;658;48.820;9.354;2023-05-10T00:42:19;23.80;54.10
1329;DHT22;658;48.820;9.354;2023-05-10T00:46:22;23.80;54.10
1329;DHT22;658;48.820;9.354;2023-05-10T00:50:24;23.80;54.20
1329;DHT22;658;48.820;9.354;2023-05-10T00:54:26;23.80;54.20
1329;DHT22;658;48.820;9.354;2023-05-10T00:58:28;23.80;54.20
1329;DHT22;658;48.820;9.354;2023-05-10T01:02:28;23.70;54.10
1329;DHT22;658;48.820;9.354;2023-05-10T01:06:29;23.70;54.00
1329;DHT22;658;48.820;9.354;2023-05-10T01:15:27;23.70;54.00
1329;DHT22;658;48.820;9.354;2023-05-10T01:19:29;23.70;53.90
1329;DHT22;658;48.820;9.354;2023-05-10T01:28:15;23.70;53.80
1329;DHT22;658;48.820;9.354;2023-05-10T01:32:53;23.60;53.60
1329;DHT22;658;48.820;9.354;2023-05-10T01:37:01;23.60;53.50
1329;DHT22;658;48.820;9.354;2023-05-10T01:45:29;23.60;53.40
1329;DHT22;658;48.820;9.354;2023-05-10T01:49:39;23.50;53.40
1329;DHT22;658;48.820;9.354;2023-05-10T01:53:44;23.50;53.40
1329;DHT22;658;48.820;9.354;2023-05-10T01:57:48;23.50;53.40
1329;DHT22;658;48.820;9.354;2023-05-10T02:01:51;23.50;53.40
1329;DHT22;658;48.820;9.354;2023-05-10T02:05:54;23.40;53.40
1329;DHT22;658;48.820;9.354;2023-05-10T02:09:55;23.50;53.40
1329;DHT22;658;48.820;9.354;2023-05-10T02:13:57;23.50;53.40
1329;DHT22;658;48.820;9.354;2023-05-10T02:18:00;23.50;53.40
1329;DHT22;658;48.820;9.354;2023-05-10T02:22:01;23.40;53.40
1329;DHT22;658;48.820;9.354;2023-05-10T02:26:04;23.40;53.50
1329;DHT22;658;48.820;9.354;2023-05-10T02:30:07;23.40;53.50
1329;DHT22;658;48.820;9.354;2023-05-10T02:34:08;23.40;53.50
1329;DHT22;658;48.820;9.354;2023-05-10T02:38:14;23.40;53.60
1329;DHT22;658;48.820;9.354;2023-05-10T02:42:19;23.40;53.50
1329;DHT22;658;48.820;9.354;2023-05-10T02:46:23;23.40;53.60
1329;DHT22;658;48.820;9.354;2023-05-10T02:50:26;23.40;54.20
1329;DHT22;658;48.820;9.354;2023-05-10T02:54:31;23.40;53.60
1329;DHT22;658;48.820;9.354;2023-05-10T02:58:32;23.40;53.60
1329;DHT22;658;48.820;9.354;2023-05-10T03:02:33;23.40;53.60
1329;DHT22;658;48.820;9.354;2023-05-10T03:06:34;23.40;53.60
1329;DHT22;658;48.820;9.354;2023-05-10T03:10:41;23.40;53.70
1329;DHT22;658;48.820;9.354;2023-05-10T03:19:09;23.40;53.70
1329;DHT22;658;48.820;9.354;2023-05-10T03:27:22;23.40;53.70
1329;DHT22;658;48.820;9.354;2023-05-10T03:31:24;23.30;53.70
1329;DHT22;658;48.820;9.354;2023-05-10T03:35:24;23.30;53.60
1329;DHT22;658;48.820;9.354;2023-05-10T03:39:25;23.30;53.60
1329;DHT22;658;48.820;9.354;2023-05-10T03:43:25;23.30;53.70
1329;DHT22;658;48.820;9.354;2023-05-10T03:47:26;23.30;53.70
1329;DHT22;658;48.820;9.354;2023-05-10T03:51:26;23.30;53.70
1329;DHT22;658;48.820;9.354;2023-05-10T03:55:31;23.30;53.70
1329;DHT22;658;48.820;9.354;2023-05-10T03:59:34;23.30;53.80
1329;DHT22;658;48.820;9.354;2023-05-10T04:03:35;23.30;53.80
1329;DHT22;658;48.820;9.354;2023-05-10T04:07:36;23.30;53.70
1329;DHT22;658;48.820;9.354;2023-05-10T04:11:37;23.30;53.70
1329;DHT22;658;48.820;9.354;2023-05-10T04:15:37;23.30;53.80
1329;DHT22;658;48.820;9.354;2023-05-10T04:19:40;23.30;53.70
1329;DHT22;658;48.820;9.354;2023-05-10T04:23:43;23.30;53.80
1329;DHT22;658;48.820;9.354;2023-05-10T04:27:44;23.30;53.80
1329;DHT22;658;48.820;9.354;2023-05-10T04:31:47;23.30;53.80
1329;DHT22;658;48.820;9.354;2023-05-10T04:35:49;23.30;53.80
1329;DHT22;658;48.820;9.354;2023-05-10T04:39:49;23.30;53.90
1329;DHT22;658;48.820;9.354;2023-05-10T04:43:50;23.30;53.90
1329;DHT22;658;48.820;9.354;2023-05-10T04:47:51;23.30;54.00
1329;DHT22;658;48.820;9.354;2023-05-10T04:51:54;23.30;54.00
1329;DHT22;658;48.820;9.354;2023-05-10T04:55:54;23.30;54.10
1329;DHT22;658;48.820;9.354;2023-05-10T04:59:55;23.30;54.40
1329;DHT22;658;48.820;9.354;2023-05-10T05:03:56;23.30;54.30
1329;DHT22;658;48.820;9.354;2023-05-10T05:07:56;23.30;54.20
1329;DHT22;658;48.820;9.354;2023-05-10T05:11:57;23.40;54.30
1329;DHT22;658;48.820;9.354;2023-05-10T05:16:00;23.40;54.30
1329;DHT22;658;48.820;9.354;2023-05-10T05:20:01;23.40;54.30
1329;DHT22;658;48.820;9.354;2023-05-10T05:24:02;23.40;54.30
1329;DHT22;658;48.820;9.354;2023-05-10T05:28:03;23.40;54.50
1329;DHT22;658;48.820;9.354;2023-05-10T05:32:06;23.40;54.40
1329;DHT22;658;48.820;9.354;2023-05-10T05:36:08;23.40;54.30
1329;DHT22;658;48.820;9.354;2023-05-10T05:40:12;23.50;54.30
1329;DHT22;658;48.820;9.354;2023-05-10T05:44:13;23.50;54.90
1329;DHT22;658;48.820;9.354;2023-05-10T05:48:14;23.50;54.20
1329;DHT22;658;48.820;9.354;2023-05-10T05:52:14;23.60;54.20
1329;DHT22;658;48.820;9.354;2023-05-10T05:56:15;23.60;54.10
1329;DHT22;658;48.820;9.354;2023-05-10T06:00:16;23.60;54.00
1329;DHT22;658;48.820;9.354;2023-05-10T06:04:17;23.60;54.00
1329;DHT22;658;48.820;9.354;2023-05-10T06:08:17;23.60;53.90
1329;DHT22;658;48.820;9.354;2023-05-10T06:12:18;23.70;53.90
1329;DHT22;658;48.820;9.354;2023-05-10T06:16:19;23.70;54.40
1329;DHT22;658;48.820;9.354;2023-05-10T06:20:19;23.70;53.70
1329;DHT22;658;48.820;9.354;2023-05-10T06:24:22;23.60;53.50
1329;DHT22;658;48.820;9.354;2023-05-10T06:28:22;23.70;53.70
1329;DHT22;658;48.820;9.354;2023-05-10T06:32:23;23.70;53.60
1329;DHT22;658;48.820;9.354;2023-05-10T06:36:24;23.70;53.60
1329;DHT22;658;48.820;9.354;2023-05-10T06:40:26;23.80;53.60
1329;DHT22;658;48.820;9.354;2023-05-10T06:44:27;23.80;53.40
1329;DHT22;658;48.820;9.354;2023-05-10T06:48:28;23.80;53.40
1329;DHT22;658;48.820;9.354;2023-05-10T06:52:28;23.80;53.20
1329;DHT22;658;48.820;9.354;2023-05-10T06:56:29;23.70;53.30
1329;DHT22;658;48.820;9.354;2023-05-10T07:00:30;23.70;53.30
1329;DHT22;658;48.820;9.354;2023-05-10T07:04:32;23.70;53.20
1329;DHT22;658;48.820;9.354;2023-05-10T07:08:34;23.70;53.20
1329;DHT22;658;48.820;9.354;2023-05-10T07:12:37;23.70;53.30
1329;DHT22;658;48.820;9.354;2023-05-10T07:16:38;23.80;53.30
1329;DHT22;658;48.820;9.354;2023-05-10T07:20:39;23.80;53.30
1329;DHT22;658;48.820;9.354;2023-05-10T07:24:40;23.80;53.20
1329;DHT22;658;48.820;9.354;2023-05-10T07:28:43;23.80;53.20
1329;DHT22;658;48.820;9.354;2023-05-10T07:32:43;23.90;53.10
1329;DHT22;658;48.820;9.354;2023-05-10T07:36:44;23.90;53.00
1329;DHT22;658;48.820;9.354;2023-05-10T07:40:44;23.90;52.90
1329;DHT22;658;48.820;9.354;2023-05-10T07:44:45;23.90;52.70
1329;DHT22;658;48.820;9.354;2023-05-10T07:48:46;24.00;52.80
1329;DHT22;658;48.820;9.354;2023-05-10T07:52:47;24.00;52.70
1329;DHT22;658;48.820;9.354;2023-05-10T07:56:48;24.10;52.60
1329;DHT22;658;48.820;9.354;2023-05-10T08:00:51;24.10;52.50
1329;DHT22;658;48.820;9.354;2023-05-10T08:04:51;24.10;52.40
1329;DHT22;658;48.820;9.354;2023-05-10T08:08:52;24.10;52.20
1329;DHT22;658;48.820;9.354;2023-05-10T08:12:54;24.10;52.20
1329;DHT22;658;48.820;9.354;2023-05-10T08:16:57;24.10;52.10
1329;DHT22;658;48.820;9.354;2023-05-10T08:20:57;24.10;52.20
1329;DHT22;658;48.820;9.354;2023-05-10T08:24:58;24.20;52.20
1329;DHT22;658;48.820;9.354;2023-05-10T08:28:58;24.10;52.00
1329;DHT22;658;48.820;9.354;2023-05-10T08:32:59;24.10;51.80
1329;DHT22;658;48.820;9.354;2023-05-10T08:36:59;24.10;51.70
1329;DHT22;658;48.820;9.354;2023-05-10T08:41:02;24.10;51.70
1329;DHT22;658;48.820;9.354;2023-05-10T08:45:03;24.10;51.60
1329;DHT22;658;48.820;9.354;2023-05-10T08:49:07;24.10;51.50
1329;DHT22;658;48.820;9.354;2023-05-10T08:53:12;24.10;51.40
1329;DHT22;658;48.820;9.354;2023-05-10T08:57:13;24.10;51.40
1329;DHT22;658;48.820;9.354;2023-05-10T09:01:16;24.10;51.20
1329;DHT22;658;48.820;9.354;2023-05-10T09:05:20;24.10;51.00
1329;DHT22;658;48.820;9.354;2023-05-10T09:09:21;24.10;51.00
1329;DHT22;658;48.820;9.354;2023-05-10T09:13:24;24.10;50.70
1329;DHT22;658;48.820;9.354;2023-05-10T09:17:25;24.10;50.60
1329;DHT22;658;48.820;9.354;2023-05-10T09:21:27;24.10;50.60
1329;DHT22;658;48.820;9.354;2023-05-10T09:25:28;24.10;50.30
1329;DHT22;658;48.820;9.354;2023-05-10T09:29:39;24.10;50.30
1329;DHT22;658;48.820;9.354;2023-05-10T09:33:44;24.10;50.10
1329;DHT22;658;48.820;9.354;2023-05-10T09:37:51;24.20;50.10
1329;DHT22;658;48.820;9.354;2023-05-10T09:41:52;24.20;49.90
1329;DHT22;658;48.820;9.354;2023-05-10T09:45:54;24.30;49.80
1329;DHT22;658;48.820;9.354;2023-05-10T09:49:55;24.30;49.70
1329;DHT22;658;48.820;9.354;2023-05-10T09:54:13;24.30;49.50
1329;DHT22;658;48.820;9.354;2023-05-10T09:58:15;24.30;49.40
1329;DHT22;658;48.820;9.354;2023-05-10T10:02:18;24.30;49.30
1329;DHT22;658;48.820;9.354;2023-05-10T10:06:19;24.30;49.20
1329;DHT22;658;48.820;9.354;2023-05-10T10:10:20;24.30;49.00
1329;DHT22;658;48.820;9.354;2023-05-10T10:14:22;24.30;48.80
1329;DHT22;658;48.820;9.354;2023-05-10T10:18:23;24.30;48.70
1329;DHT22;658;48.820;9.354;2023-05-10T10:22:27;24.30;48.70
1329;DHT22;658;48.820;9.354;2023-05-10T10:26:28;24.30;48.70
1329;DHT22;658;48.820;9.354;2023-05-10T10:34:35;24.10;48.60
1329;DHT22;658;48.820;9.354;2023-05-10T10:38:37;24.00;48.60
1329;DHT22;658;48.820;9.354;2023-05-10T10:42:47;24.10;48.70
1329;DHT22;658;48.820;9.354;2023-05-10T10:51:01;24.10;48.60
1329;DHT22;658;48.820;9.354;2023-05-10T10:59:10;24.20;48.70
1329;DHT22;658;48.820;9.354;2023-05-10T11:03:12;24.10;48.50
1329;DHT22;658;48.820;9.354;2023-05-10T11:07:19;24.20;48.70
1329;DHT22;658;48.820;9.354;2023-05-10T11:11:23;24.20;48.60
1329;DHT22;658;48.820;9.354;2023-05-10T11:15:32;24.20;48.70
1329;DHT22;658;48.820;9.354;2023-05-10T11:19:35;24.20;48.30
1329;DHT22;658;48.820;9.354;2023-05-10T11:27:40;24.20;47.80
1329;DHT22;658;48.820;9.354;2023-05-10T11:31:44;24.10;47.30
1329;DHT22;658;48.820;9.354;2023-05-10T11:35:45;24.00;47.90
1329;DHT22;658;48.820;9.354;2023-05-10T11:39:46;24.10;47.80
1329;DHT22;658;48.820;9.354;2023-05-10T11:43:53;24.10;47.20
1329;DHT22;658;48.820;9.354;2023-05-10T11:47:55;24.10;47.30
1329;DHT22;658;48.820;9.354;2023-05-10T11:52:06;24.10;47.40
1329;DHT22;658;48.820;9.354;2023-05-10T11:56:08;24.10;47.20
1329;DHT22;658;48.820;9.354;2023-05-10T12:00:10;24.10;47.40
1329;DHT22;658;48.820;9.354;2023-05-10T12:04:11;24.10;47.30
1329;DHT22;658;48.820;9.354;2023-05-10T12:08:15;24.10;47.10
1329;DHT22;658;48.820;9.354;2023-05-10T12:12:20;24.10;47.10
1329;DHT22;658;48.820;9.354;2023-05-10T12:16:22;24.10;47.10
1329;DHT22;658;48.820;9.354;2023-05-10T12:20:26;24.10;47.20
1329;DHT22;658;48.820;9.354;2023-05-10T12:24:27;24.00;47.70
1329;DHT22;658;48.820;9.354;2023-05-10T12:28:31;24.00;46.90
1329;DHT22;658;48.820;9.354;2023-05-10T12:32:43;24.00;47.10
1329;DHT22;658;48.820;9.354;2023-05-10T12:36:44;24.00;47.10
1329;DHT22;658;48.820;9.354;2023-05-10T12:40:45;24.00;47.10
1329;DHT22;658;48.820;9.354;2023-05-10T12:44:45;24.00;47.40
1329;DHT22;658;48.820;9.354;2023-05-10T12:48:46;24.00;47.10
1329;DHT22;658;48.820;9.354;2023-05-10T12:52:49;24.00;47.10
1329;DHT22;658;48.820;9.354;2023-05-10T12:56:50;24.10;47.00
1329;DHT22;658;48.820;9.354;2023-05-10T13:00:51;24.10;46.90
1329;DHT22;658;48.820;9.354;2023-05-10T13:04:52;24.10;46.70
1329;DHT22;658;48.820;9.354;2023-05-10T13:08:53;24.10;46.60
1329;DHT22;658;48.820;9.354;2023-05-10T13:12:53;24.10;46.40
1329;DHT22;658;48.820;9.354;2023-05-10T13:16:54;24.10;46.50
1329;DHT22;658;48.820;9.354;2023-05-10T13:20:55;24.10;46.40
1329;DHT22;658;48.820;9.354;2023-05-10T13:24:56;24.20;46.70
1329;DHT22;658;48.820;9.354;2023-05-10T13:28:56;24.10;46.60
1329;DHT22;658;48.820;9.354;2023-05-10T13:32:57;24.20;46.60
1329;DHT22;658;48.820;9.354;2023-05-10T13:36:57;24.10;46.60
1329;DHT22;658;48.820;9.354;2023-05-10T13:40:58;24.10;46.40
1329;DHT22;658;48.820;9.354;2023-05-10T13:44:59;24.00;46.30
1329;DHT22;658;48.820;9.354;2023-05-10T13:49:01;24.00;46.40
1329;DHT22;658;48.820;9.354;2023-05-10T13:53:02;23.90;46.40
1329;DHT22;658;48.820;9.354;2023-05-10T13:57:03;23.90;46.30
1329;DHT22;658;48.820;9.354;2023-05-10T14:01:04;24.00;46.60
1329;DHT22;658;48.820;9.354;2023-05-10T14:05:05;23.90;47.20
1329;DHT22;658;48.820;9.354;2023-05-10T14:09:06;24.00;47.50
1329;DHT22;658;48.820;9.354;2023-05-10T14:13:07;24.10;47.50
1329;DHT22;658;48.820;9.354;2023-05-10T14:17:08;24.10;47.40
1329;DHT22;658;48.820;9.354;2023-05-10T14:21:08;24.10;47.80
1329;DHT22;658;48.820;9.354;2023-05-10T14:25:09;24.20;48.10
1329;DHT22;658;48.820;9.354;2023-05-10T14:29:12;24.20;47.70
1329;DHT22;658;48.820;9.354;2023-05-10T14:33:13;24.20;47.50
1329;DHT22;658;48.820;9.354;2023-05-10T14:37:16;24.30;47.60
1329;DHT22;658;48.820;9.354;2023-05-10T14:41:17;24.30;47.60
1329;DHT22;658;48.820;9.354;2023-05-10T14:45:18;24.40;47.40
1329;DHT22;658;48.820;9.354;2023-05-10T14:49:19;24.40;47.60
1329;DHT22;658;48.820;9.354;2023-05-10T14:53:22;24.50;47.30
1329;DHT22;658;48.820;9.354;2023-05-10T14:57:23;24.50;47.20
1329;DHT22;658;48.820;9.354;2023-05-10T15:01:24;24.50;47.10
1329;DHT22;658;48.820;9.354;2023-05-10T15:05:24;24.50;46.90
1329;DHT22;658;48.820;9.354;2023-05-10T15:09:25;24.50;47.00
1329;DHT22;658;48.820;9.354;2023-05-10T15:13:27;24.40;46.80
1329;DHT22;658;48.820;9.354;2023-05-10T15:17:28;24.40;46.80
1329;DHT22;658;48.820;9.354;2023-05-10T15:21:29;24.40;46.70
1329;DHT22;658;48.820;9.354;2023-05-10T15:25:31;24.40;46.60
1329;DHT22;658;48.820;9.354;2023-05-10T15:29:34;24.30;46.60
1329;DHT22;658;48.820;9.354;2023-05-10T15:33:37;24.30;46.50
1329;DHT22;658;48.820;9.354;2023-05-10T15:37:37;24.30;46.90
1329;DHT22;658;48.820;9.354;2023-05-10T15:41:38;24.40;46.80
1329;DHT22;658;48.820;9.354;2023-05-10T15:45:39;24.30;46.60
1329;DHT22;658;48.820;9.354;2023-05-10T15:49:40;24.20;47.10
1329;DHT22;658;48.820;9.354;2023-05-10T15:53:41;24.20;47.00
1329;DHT22;658;48.820;9.354;2023-05-10T15:57:43;24.30;47.20
1329;DHT22;658;48.820;9.354;2023-05-10T16:01:43;24.30;47.40
1329;DHT22;658;48.820;9.354;2023-05-10T16:05:46;24.30;47.20
1329;DHT22;658;48.820;9.354;2023-05-10T16:09:47;24.40;47.30
1329;DHT22;658;48.820;9.354;2023-05-10T16:13:48;24.40;47.20
1329;DHT22;658;48.820;9.354;2023-05-10T16:17:49;24.40;47.70
1329;DHT22;658;48.820;9.354;2023-05-10T16:21:50;24.40;47.30
1329;DHT22;658;48.820;9.354;2023-05-10T16:25:50;24.40;47.20
1329;DHT22;658;48.820;9.354;2023-05-10T16:29:51;24.50;47.40
1329;DHT22;658;48.820;9.354;2023-05-10T16:33:52;24.40;47.20
1329;DHT22;658;48.820;9.354;2023-05-10T16:37:52;24.40;47.20
1329;DHT22;658;48.820;9.354;2023-05-10T16:41:53;24.40;47.20
1329;DHT22;658;48.820;9.354;2023-05-10T16:45:53;24.40;47.30
1329;DHT22;658;48.820;9.354;2023-05-10T16:49:54;24.40;47.30
1329;DHT22;658;48.820;9.354;2023-05-10T16:53:57;24.40;47.30
1329;DHT22;658;48.820;9.354;2023-05-10T16:57:58;24.40;47.30
1329;DHT22;658;48.820;9.354;2023-05-10T17:02:00;24.40;47.40
1329;DHT22;658;48.820;9.354;2023-05-10T17:06:00;24.40;47.90
1329;DHT22;658;48.820;9.354;2023-05-10T17:10:01;24.40;47.40
1329;DHT22;658;48.820;9.354;2023-05-10T17:14:01;24.30;47.30
1329;DHT22;658;48.820;9.354;2023-05-10T17:18:03;24.40;47.40
1329;DHT22;658;48.820;9.354;2023-05-10T17:22:04;24.30;47.40
1329;DHT22;658;48.820;9.354;2023-05-10T17:26:05;24.30;47.40
1329;DHT22;658;48.820;9.354;2023-05-10T17:30:06;24.30;47.40
1329;DHT22;658;48.820;9.354;2023-05-10T17:34:07;24.30;47.50
1329;DHT22;658;48.820;9.354;2023-05-10T17:38:07;24.30;47.50
1329;DHT22;658;48.820;9.354;2023-05-10T17:42:08;24.30;47.60
1329;DHT22;658;48.820;9.354;2023-05-10T17:46:09;24.30;47.70
1329;DHT22;658;48.820;9.354;2023-05-10T17:50:12;24.20;47.70
1329;DHT22;658;48.820;9.354;2023-05-10T17:54:13;24.20;47.80
1329;DHT22;658;48.820;9.354;2023-05-10T17:58:14;24.20;47.80
1329;DHT22;658;48.820;9.354;2023-05-10T18:02:14;24.10;47.80
1329;DHT22;658;48.820;9.354;2023-05-10T18:06:15;24.20;47.90
1329;DHT22;658;48.820;9.354;2023-05-10T18:10:16;24.10;47.90
1329;DHT22;658;48.820;9.354;2023-05-10T18:14:16;24.10;48.70
1329;DHT22;658;48.820;9.354;2023-05-10T18:18:17;24.10;48.20
1329;DHT22;658;48.820;9.354;2023-05-10T18:22:17;24.10;48.30
1329;DHT22;658;48.820;9.354;2023-05-10T18:26:18;24.00;48.20
1329;DHT22;658;48.820;9.354;2023-05-10T18:30:19;24.00;48.50
1329;DHT22;658;48.820;9.354;2023-05-10T18:34:22;24.00;48.40
1329;DHT22;658;48.820;9.354;2023-05-10T18:38:22;24.00;48.50
1329;DHT22;658;48.820;9.354;2023-05-10T18:42:23;23.90;48.60
1329;DHT22;658;48.820;9.354;2023-05-10T18:46:24;23.90;48.60
1329;DHT22;658;48.820;9.354;2023-05-10T18:50:24;23.90;48.80
1329;DHT22;658;48.820;9.354;2023-05-10T18:54:27;23.90;48.70
1329;DHT22;658;48.820;9.354;2023-05-10T18:58:29;23.90;48.80
1329;DHT22;658;48.820;9.354;2023-05-10T19:02:29;23.80;48.80
1329;DHT22;658;48.820;9.354;2023-05-10T19:06:30;23.80;48.90
1329;DHT22;658;48.820;9.354;2023-05-10T19:10:30;23.80;48.90
1329;DHT22;658;48.820;9.354;2023-05-10T19:14:31;23.80;49.00
1329;DHT22;658;48.820;9.354;2023-05-10T19:18:32;23.80;49.10
1329;DHT22;658;48.820;9.354;2023-05-10T19:22:32;23.80;49.00
1329;DHT22;658;48.820;9.354;2023-05-10T19:26:33;23.80;49.20
1329;DHT22;658;48.820;9.354;2023-05-10T19:30:34;23.80;49.20
1329;DHT22;658;48.820;9.354;2023-05-10T19:34:34;23.70;49.30
1329;DHT22;658;48.820;9.354;2023-05-10T19:38:37;23.70;49.30
1329;DHT22;658;48.820;9.354;2023-05-10T19:42:38;23.70;49.40
1329;DHT22;658;48.820;9.354;2023-05-10T19:46:38;23.70;49.30
1329;DHT22;658;48.820;9.354;2023-05-10T19:50:39;23.60;49.40
1329;DHT22;658;48.820;9.354;2023-05-10T19:54:39;23.60;49.40
1329;DHT22;658;48.820;9.354;2023-05-10T19:58:44;23.60;49.40
1329;DHT22;658;48.820;9.354;2023-05-10T20:02:44;23.60;49.50
1329;DHT22;658;48.820;9.354;2023-05-10T20:06:45;23.60;49.50
1329;DHT22;658;48.820;9.354;2023-05-10T20:10:46;23.60;50.00
1329;DHT22;658;48.820;9.354;2023-05-10T20:14:46;23.60;49.60
1329;DHT22;658;48.820;9.354;2023-05-10T20:18:47;23.60;49.90
1329;DHT22;658;48.820;9.354;2023-05-10T20:22:47;23.60;49.70
1329;DHT22;658;48.820;9.354;2023-05-10T20:26:48;23.60;49.80
1329;DHT22;658;48.820;9.354;2023-05-10T20:30:53;23.50;49.70
1329;DHT22;658;48.820;9.354;2023-05-10T20:34:54;23.50;49.70
1329;DHT22;658;48.820;9.354;2023-05-10T20:38:55;23.50;49.70
1329;DHT22;658;48.820;9.354;2023-05-10T20:42:55;23.50;49.70
1329;DHT22;658;48.820;9.354;2023-05-10T20:46:56;23.50;49.70
1329;DHT22;658;48.820;9.354;2023-05-10T20:50:57;23.50;49.70
1329;DHT22;658;48.820;9.354;2023-05-10T20:54:58;23.50;49.70
1329;DHT22;658;48.820;9.354;2023-05-10T20:58:58;23.50;49.70
1329;DHT22;658;48.820;9.354;2023-05-10T21:02:59;23.50;49.80
1329;DHT22;658;48.820;9.354;2023-05-10T21:07:00;23.50;49.80
1329;DHT22;658;48.820;9.354;2023-05-10T21:11:03;23.50;49.80
1329;DHT22;658;48.820;9.354;2023-05-10T21:15:05;23.40;49.80
1329;DHT22;658;48.820;9.354;2023-05-10T21:19:08;23.40;49.80
1329;DHT22;658;48.820;9.354;2023-05-10T21:23:09;23.40;49.80
1329;DHT22;658;48.820;9.354;2023-05-10T21:27:09;23.40;49.90
1329;DHT22;658;48.820;9.354;2023-05-10T21:31:12;23.40;49.90
1329;DHT22;658;48.820;9.354;2023-05-10T21:35:15;23.40;49.90
1329;DHT22;658;48.820;9.354;2023-05-10T21:39:16;23.40;49.90
1329;DHT22;658;48.820;9.354;2023-05-10T21:43:17;23.40;49.90
1329;DHT22;658;48.820;9.354;2023-05-10T21:47:17;23.30;49.90
1329;DHT22;658;48.820;9.354;2023-05-10T21:51:18;23.40;50.00
1329;DHT22;658;48.820;9.354;2023-05-10T21:55:19;23.30;49.90
1329;DHT22;658;48.820;9.354;2023-05-10T21:59:19;23.30;50.00
1329;DHT22;658;48.820;9.354;2023-05-10T22:03:21;23.30;49.90
1329;DHT22;658;48.820;9.354;2023-05-10T22:07:24;23.30;50.00
1329;DHT22;658;48.820;9.354;2023-05-10T22:11:24;23.30;50.00
1329;DHT22;658;48.820;9.354;2023-05-10T22:15:25;23.30;50.00
1329;DHT22;658;48.820;9.354;2023-05-10T22:19:26;23.30;50.00
1329;DHT22;658;48.820;9.354;2023-05-10T22:23:27;23.30;50.10
1329;DHT22;658;48.820;9.354;2023-05-10T22:27:27;23.30;50.00
1329;DHT22;658;48.820;9.354;2023-05-10T22:31:28;23.30;50.00
1329;DHT22;658;48.820;9.354;2023-05-10T22:35:29;23.30;50.10
1329;DHT22;658;48.820;9.354;2023-05-10T22:39:29;23.30;50.10
1329;DHT22;658;48.820;9.354;2023-05-10T22:43:30;23.20;50.10
1329;DHT22;658;48.820;9.354;2023-05-10T22:47:30;23.20;50.00
1329;DHT22;658;48.820;9.354;2023-05-10T22:51:33;23.20;50.10
1329;DHT22;658;48.820;9.354;2023-05-10T22:55:35;23.20;50.10
1329;DHT22;658;48.820;9.354;2023-05-10T22:59:35;23.20;50.10
1329;DHT22;658;48.820;9.354;2023-05-10T23:03:38;23.30;50.20
1329;DHT22;658;48.820;9.354;2023-05-10T23:07:39;23.20;50.10
1329;DHT22;658;48.820;9.354;2023-05-10T23:11:40;23.20;50.10
1329;DHT22;658;48.820;9.354;2023-05-10T23:15:40;23.20;50.20
1329;DHT22;658;48.820;9.354;2023-05-10T23:19:42;23.20;50.20
1329;DHT22;658;48.820;9.354;2023-05-10T23:23:43;23.20;50.20
1329;DHT22;658;48.820;9.354;2023-05-10T23:27:44;23.20;50.20
1329;DHT22;658;48.820;9.354;2023-05-10T23:31:47;23.20;50.20
1329;DHT22;658;48.820;9.354;2023-05-10T23:35:48;23.20;50.20
1329;DHT22;658;48.820;9.354;2023-05-10T23:39:49;23.10;50.20
1329;DHT22;658;48.820;9.354;2023-05-10T23:43:49;23.10;50.20
1329;DHT22;658;48.820;9.354;2023-05-10T23:47:50;23.10;50.20
1329;DHT22;658;48.820;9.354;2023-05-10T23:51:50;23.10;50.30
1329;DHT22;658;48.820;9.354;2023-05-10T23:55:51;23.10;50.30
1329;DHT22;658;48.820;9.354;2023-05-10T23:59:51;23.10;50.30
